sensor_id;sensor_type;location;lat;lon;timestamp;P1;durP1;ratioP1;P2;durP2;ratioP2
35977;SDS011;22056;0.000;0.000;2022-12-29T00:00:06;2.72;;;0.70;;
35977;SDS011;22056;0.000;0.000;2022-12-29T00:02:33;3.97;;;0.80;;
35977;SDS011;22056;0.000;0.000;2022-12-29T00:04:59;1.60;;;0.60;;
35977;SDS011;22056;0.000;0.000;2022-12-29T00:07:25;1.67;;;0.80;;
35977;SDS011;22056;0.000;0.000;2022-12-29T00:09:51;1.27;;;0.50;;
35977;SDS011;22056;0.000;0.000;2022-12-29T00:12:17;1.35;;;0.60;;
35977;SDS011;22056;0.000;0.000;2022-12-29T00:14:43;2.20;;;0.75;;
35977;SDS011;22056;0.000;0.000;2022-12-29T00:17:28;2.70;;;0.32;;
35977;SDS011;22056;0.000;0.000;2022-12-29T00:19:55;2.05;;;0.50;;
35977;SDS011;22056;0.000;0.000;2022-12-29T00:22:40;3.03;;;0.50;;
35977;SDS011;22056;0.000;0.000;2022-12-29T00:25:24;3.20;;;0.60;;
35977;SDS011;22056;0.000;0.000;2022-12-29T00:28:09;3.05;;;0.52;;
35977;SDS011;22056;0.000;0.000;2022-12-29T00:30:58;3.85;;;0.70;;
35977;SDS011;22056;0.000;0.000;2022-12-29T00:33:42;4.13;;;0.55;;
35977;SDS011;22056;0.000;0.000;2022-12-29T00:36:28;2.35;;;0.45;;
35977;SDS011;22056;0.000;0.000;2022-12-29T00:38:55;1.10;;;0.50;;
35977;SDS011;22056;0.000;0.000;2022-12-29T00:41:41;3.00;;;0.60;;
35977;SDS011;22056;0.000;0.000;2022-12-29T00:44:26;2.05;;;0.40;;
35977;SDS011;22056;0.000;0.000;2022-12-29T00:46:52;1.17;;;0.60;;
35977;SDS011;22056;0.000;0.000;2022-12-29T00:49:18;0.75;;;0.38;;
35977;SDS011;22056;0.000;0.000;2022-12-29T00:54:23;0.50;;;0.40;;
35977;SDS011;22056;0.000;0.000;2022-12-29T00:56:50;1.58;;;0.45;;
35977;SDS011;22056;0.000;0.000;2022-12-29T00:59:16;0.60;;;0.40;;
35977;SDS011;22056;0.000;0.000;2022-12-29T01:01:43;1.13;;;0.40;;
35977;SDS011;22056;0.000;0.000;2022-12-29T01:04:09;1.48;;;0.40;;
35977;SDS011;22056;0.000;0.000;2022-12-29T01:06:37;2.03;;;0.60;;
35977;SDS011;22056;0.000;0.000;2022-12-29T01:09:04;1.73;;;0.35;;
35977;SDS011;22056;0.000;0.000;2022-12-29T01:11:48;0.88;;;0.50;;
35977;SDS011;22056;0.000;0.000;2022-12-29T01:14:15;1.38;;;0.55;;
35977;SDS011;22056;0.000;0.000;2022-12-29T01:16:41;1.27;;;0.43;;
35977;SDS011;22056;0.000;0.000;2022-12-29T01:19:07;1.25;;;0.50;;
35977;SDS011;22056;0.000;0.000;2022-12-29T01:21:33;1.63;;;0.40;;
35977;SDS011;22056;0.000;0.000;2022-12-29T01:23:59;4.40;;;0.50;;
35977;SDS011;22056;0.000;0.000;2022-12-29T01:26:25;1.25;;;0.55;;
35977;SDS011;22056;0.000;0.000;2022-12-29T01:28:52;0.30;;;0.30;;
35977;SDS011;22056;0.000;0.000;2022-12-29T01:31:18;0.77;;;0.50;;
35977;SDS011;22056;0.000;0.000;2022-12-29T01:33:44;2.28;;;0.50;;
35977;SDS011;22056;0.000;0.000;2022-12-29T01:36:12;2.25;;;0.50;;
35977;SDS011;22056;0.000;0.000;2022-12-29T01:38:39;0.60;;;0.40;;
35977;SDS011;22056;0.000;0.000;2022-12-29T01:41:05;0.85;;;0.60;;
35977;SDS011;22056;0.000;0.000;2022-12-29T01:43:48;0.82;;;0.50;;
35977;SDS011;22056;0.000;0.000;2022-12-29T01:51:29;0.73;;;0.40;;
35977;SDS011;22056;0.000;0.000;2022-12-29T01:53:57;1.00;;;0.40;;
35977;SDS011;22056;0.000;0.000;2022-12-29T01:56:25;1.17;;;0.50;;
35977;SDS011;22056;0.000;0.000;2022-12-29T01:58:54;0.95;;;0.40;;
35977;SDS011;22056;0.000;0.000;2022-12-29T02:01:21;0.68;;;0.40;;
35977;SDS011;22056;0.000;0.000;2022-12-29T02:03:48;0.80;;;0.40;;
35977;SDS011;22056;0.000;0.000;2022-12-29T02:06:16;5.38;;;0.60;;
35977;SDS011;22056;0.000;0.000;2022-12-29T02:08:45;1.02;;;0.30;;
35977;SDS011;22056;0.000;0.000;2022-12-29T02:11:12;0.60;;;0.40;;
35977;SDS011;22056;0.000;0.000;2022-12-29T02:13:38;1.25;;;0.40;;
35977;SDS011;22056;0.000;0.000;2022-12-29T02:26:58;0.43;;;0.30;;
35977;SDS011;22056;0.000;0.000;2022-12-29T02:29:40;1.45;;;0.35;;
35977;SDS011;22056;0.000;0.000;2022-12-29T02:37:11;0.63;;;0.30;;
35977;SDS011;22056;0.000;0.000;2022-12-29T02:42:33;1.10;;;0.57;;
35977;SDS011;22056;0.000;0.000;2022-12-29T02:45:11;1.58;;;0.40;;
35977;SDS011;22056;0.000;0.000;2022-12-29T02:50:10;0.57;;;0.35;;
35977;SDS011;22056;0.000;0.000;2022-12-29T02:52:43;1.77;;;0.50;;
35977;SDS011;22056;0.000;0.000;2022-12-29T02:55:11;0.63;;;0.40;;
35977;SDS011;22056;0.000;0.000;2022-12-29T02:57:37;0.63;;;0.30;;
35977;SDS011;22056;0.000;0.000;2022-12-29T03:00:05;0.70;;;0.50;;
35977;SDS011;22056;0.000;0.000;2022-12-29T03:13:01;0.32;;;0.32;;
35977;SDS011;22056;0.000;0.000;2022-12-29T03:19:02;0.40;;;0.40;;
35977;SDS011;22056;0.000;0.000;2022-12-29T03:24:24;1.60;;;0.38;;
35977;SDS011;22056;0.000;0.000;2022-12-29T03:26:51;0.88;;;0.40;;
35977;SDS011;22056;0.000;0.000;2022-12-29T03:29:18;0.63;;;0.45;;
35977;SDS011;22056;0.000;0.000;2022-12-29T03:31:46;0.47;;;0.30;;
35977;SDS011;22056;0.000;0.000;2022-12-29T03:34:14;0.40;;;0.32;;
35977;SDS011;22056;0.000;0.000;2022-12-29T03:36:48;0.40;;;0.30;;
35977;SDS011;22056;0.000;0.000;2022-12-29T03:39:15;0.80;;;0.40;;
35977;SDS011;22056;0.000;0.000;2022-12-29T03:41:43;0.43;;;0.30;;
35977;SDS011;22056;0.000;0.000;2022-12-29T03:44:11;0.40;;;0.32;;
35977;SDS011;22056;0.000;0.000;2022-12-29T03:46:38;1.60;;;0.50;;
35977;SDS011;22056;0.000;0.000;2022-12-29T03:49:04;0.40;;;0.40;;
35977;SDS011;22056;0.000;0.000;2022-12-29T03:51:30;0.63;;;0.40;;
35977;SDS011;22056;0.000;0.000;2022-12-29T03:53:56;1.67;;;0.40;;
35977;SDS011;22056;0.000;0.000;2022-12-29T03:56:23;0.32;;;0.30;;
35977;SDS011;22056;0.000;0.000;2022-12-29T03:58:49;1.10;;;0.40;;
35977;SDS011;22056;0.000;0.000;2022-12-29T04:01:15;1.33;;;0.50;;
35977;SDS011;22056;0.000;0.000;2022-12-29T04:03:41;0.98;;;0.38;;
35977;SDS011;22056;0.000;0.000;2022-12-29T04:06:07;0.45;;;0.40;;
35977;SDS011;22056;0.000;0.000;2022-12-29T04:08:33;0.77;;;0.40;;
35977;SDS011;22056;0.000;0.000;2022-12-29T04:10:59;0.65;;;0.40;;
35977;SDS011;22056;0.000;0.000;2022-12-29T04:13:25;1.75;;;0.47;;
35977;SDS011;22056;0.000;0.000;2022-12-29T04:15:52;1.27;;;0.60;;
35977;SDS011;22056;0.000;0.000;2022-12-29T04:18:18;0.70;;;0.40;;
35977;SDS011;22056;0.000;0.000;2022-12-29T04:20:44;0.40;;;0.30;;
35977;SDS011;22056;0.000;0.000;2022-12-29T04:23:26;0.47;;;0.37;;
35977;SDS011;22056;0.000;0.000;2022-12-29T04:25:53;0.65;;;0.50;;
35977;SDS011;22056;0.000;0.000;2022-12-29T04:28:19;0.43;;;0.40;;
35977;SDS011;22056;0.000;0.000;2022-12-29T04:30:45;0.30;;;0.30;;
35977;SDS011;22056;0.000;0.000;2022-12-29T04:33:11;0.55;;;0.40;;
35977;SDS011;22056;0.000;0.000;2022-12-29T04:35:37;0.45;;;0.40;;
35977;SDS011;22056;0.000;0.000;2022-12-29T04:38:03;0.40;;;0.30;;
35977;SDS011;22056;0.000;0.000;2022-12-29T04:40:29;0.30;;;0.30;;
35977;SDS011;22056;0.000;0.000;2022-12-29T04:42:56;0.40;;;0.40;;
35977;SDS011;22056;0.000;0.000;2022-12-29T04:45:22;0.30;;;0.30;;
35977;SDS011;22056;0.000;0.000;2022-12-29T04:47:48;0.70;;;0.50;;
35977;SDS011;22056;0.000;0.000;2022-12-29T04:50:14;0.93;;;0.40;;
35977;SDS011;22056;0.000;0.000;2022-12-29T04:52:40;0.63;;;0.30;;
35977;SDS011;22056;0.000;0.000;2022-12-29T04:55:06;0.60;;;0.40;;
35977;SDS011;22056;0.000;0.000;2022-12-29T04:57:33;0.40;;;0.30;;
35977;SDS011;22056;0.000;0.000;2022-12-29T04:59:59;0.40;;;0.38;;
35977;SDS011;22056;0.000;0.000;2022-12-29T05:02:25;0.70;;;0.50;;
35977;SDS011;22056;0.000;0.000;2022-12-29T05:04:51;0.30;;;0.30;;
35977;SDS011;22056;0.000;0.000;2022-12-29T05:07:18;0.60;;;0.40;;
35977;SDS011;22056;0.000;0.000;2022-12-29T05:09:44;0.70;;;0.40;;
35977;SDS011;22056;0.000;0.000;2022-12-29T05:15:25;0.50;;;0.40;;
35977;SDS011;22056;0.000;0.000;2022-12-29T05:17:51;0.75;;;0.40;;
35977;SDS011;22056;0.000;0.000;2022-12-29T05:20:17;0.45;;;0.40;;
35977;SDS011;22056;0.000;0.000;2022-12-29T05:22:44;0.60;;;0.40;;
35977;SDS011;22056;0.000;0.000;2022-12-29T05:25:10;1.98;;;0.30;;
35977;SDS011;22056;0.000;0.000;2022-12-29T05:27:36;0.93;;;0.30;;
35977;SDS011;22056;0.000;0.000;2022-12-29T05:30:03;0.40;;;0.40;;
35977;SDS011;22056;0.000;0.000;2022-12-29T05:32:29;0.35;;;0.35;;
35977;SDS011;22056;0.000;0.000;2022-12-29T05:34:55;0.65;;;0.30;;
35977;SDS011;22056;0.000;0.000;2022-12-29T05:37:21;0.52;;;0.40;;
35977;SDS011;22056;0.000;0.000;2022-12-29T05:39:47;0.50;;;0.40;;
35977;SDS011;22056;0.000;0.000;2022-12-29T05:42:14;0.85;;;0.30;;
35977;SDS011;22056;0.000;0.000;2022-12-29T05:44:40;0.90;;;0.50;;
35977;SDS011;22056;0.000;0.000;2022-12-29T05:47:06;1.02;;;0.40;;
35977;SDS011;22056;0.000;0.000;2022-12-29T05:49:32;0.80;;;0.38;;
35977;SDS011;22056;0.000;0.000;2022-12-29T05:51:58;0.95;;;0.50;;
35977;SDS011;22056;0.000;0.000;2022-12-29T05:54:24;0.70;;;0.40;;
35977;SDS011;22056;0.000;0.000;2022-12-29T05:56:50;0.77;;;0.30;;
35977;SDS011;22056;0.000;0.000;2022-12-29T05:59:16;1.67;;;0.60;;
35977;SDS011;22056;0.000;0.000;2022-12-29T06:01:43;1.58;;;0.50;;
35977;SDS011;22056;0.000;0.000;2022-12-29T06:04:09;0.50;;;0.40;;
35977;SDS011;22056;0.000;0.000;2022-12-29T06:06:35;0.75;;;0.40;;
35977;SDS011;22056;0.000;0.000;2022-12-29T06:09:01;1.67;;;0.40;;
35977;SDS011;22056;0.000;0.000;2022-12-29T06:11:27;1.02;;;0.40;;
35977;SDS011;22056;0.000;0.000;2022-12-29T06:13:53;1.13;;;0.50;;
35977;SDS011;22056;0.000;0.000;2022-12-29T06:16:19;2.15;;;0.50;;
35977;SDS011;22056;0.000;0.000;2022-12-29T06:18:45;0.93;;;0.50;;
35977;SDS011;22056;0.000;0.000;2022-12-29T06:21:12;0.90;;;0.50;;
35977;SDS011;22056;0.000;0.000;2022-12-29T06:23:38;1.08;;;0.40;;
35977;SDS011;22056;0.000;0.000;2022-12-29T06:26:04;0.93;;;0.50;;
35977;SDS011;22056;0.000;0.000;2022-12-29T06:28:30;0.47;;;0.40;;
35977;SDS011;22056;0.000;0.000;2022-12-29T06:30:56;1.13;;;0.40;;
35977;SDS011;22056;0.000;0.000;2022-12-29T06:33:22;0.70;;;0.30;;
35977;SDS011;22056;0.000;0.000;2022-12-29T06:35:49;1.50;;;0.80;;
35977;SDS011;22056;0.000;0.000;2022-12-29T06:38:15;1.45;;;0.65;;
35977;SDS011;22056;0.000;0.000;2022-12-29T06:40:41;1.20;;;0.50;;
35977;SDS011;22056;0.000;0.000;2022-12-29T06:43:09;0.82;;;0.50;;
35977;SDS011;22056;0.000;0.000;2022-12-29T06:45:37;1.20;;;0.50;;
35977;SDS011;22056;0.000;0.000;2022-12-29T06:48:05;1.08;;;0.40;;
35977;SDS011;22056;0.000;0.000;2022-12-29T06:50:31;2.08;;;0.60;;
35977;SDS011;22056;0.000;0.000;2022-12-29T06:52:57;2.63;;;0.52;;
35977;SDS011;22056;0.000;0.000;2022-12-29T06:55:23;2.00;;;0.60;;
35977;SDS011;22056;0.000;0.000;2022-12-29T06:57:49;0.80;;;0.50;;
35977;SDS011;22056;0.000;0.000;2022-12-29T07:00:16;0.90;;;0.55;;
35977;SDS011;22056;0.000;0.000;2022-12-29T07:02:42;0.82;;;0.43;;
35977;SDS011;22056;0.000;0.000;2022-12-29T07:05:08;2.20;;;0.63;;
35977;SDS011;22056;0.000;0.000;2022-12-29T07:07:35;1.70;;;0.40;;
35977;SDS011;22056;0.000;0.000;2022-12-29T07:10:01;1.00;;;0.50;;
35977;SDS011;22056;0.000;0.000;2022-12-29T07:12:27;2.95;;;0.43;;
35977;SDS011;22056;0.000;0.000;2022-12-29T07:14:53;1.73;;;0.55;;
35977;SDS011;22056;0.000;0.000;2022-12-29T07:17:19;1.83;;;0.80;;
35977;SDS011;22056;0.000;0.000;2022-12-29T07:19:46;1.17;;;0.50;;
35977;SDS011;22056;0.000;0.000;2022-12-29T07:22:12;1.15;;;0.57;;
35977;SDS011;22056;0.000;0.000;2022-12-29T07:24:38;3.30;;;0.60;;
35977;SDS011;22056;0.000;0.000;2022-12-29T07:27:05;2.63;;;0.70;;
35977;SDS011;22056;0.000;0.000;2022-12-29T07:29:31;2.22;;;0.60;;
35977;SDS011;22056;0.000;0.000;2022-12-29T07:31:57;1.60;;;0.60;;
35977;SDS011;22056;0.000;0.000;2022-12-29T07:34:23;1.52;;;0.50;;
35977;SDS011;22056;0.000;0.000;2022-12-29T07:36:49;1.55;;;0.55;;
35977;SDS011;22056;0.000;0.000;2022-12-29T07:39:15;1.83;;;0.65;;
35977;SDS011;22056;0.000;0.000;2022-12-29T07:41:41;2.28;;;0.57;;
35977;SDS011;22056;0.000;0.000;2022-12-29T07:44:08;0.98;;;0.40;;
35977;SDS011;22056;0.000;0.000;2022-12-29T07:46:35;2.35;;;0.75;;
35977;SDS011;22056;0.000;0.000;2022-12-29T07:49:01;2.80;;;0.57;;
35977;SDS011;22056;0.000;0.000;2022-12-29T07:51:27;1.40;;;0.65;;
35977;SDS011;22056;0.000;0.000;2022-12-29T07:53:53;3.65;;;0.70;;
35977;SDS011;22056;0.000;0.000;2022-12-29T07:56:19;2.72;;;0.70;;
35977;SDS011;22056;0.000;0.000;2022-12-29T07:58:45;1.25;;;0.52;;
35977;SDS011;22056;0.000;0.000;2022-12-29T08:01:11;2.15;;;0.50;;
35977;SDS011;22056;0.000;0.000;2022-12-29T08:03:37;2.33;;;0.57;;
35977;SDS011;22056;0.000;0.000;2022-12-29T08:06:08;3.13;;;0.80;;
35977;SDS011;22056;0.000;0.000;2022-12-29T08:08:34;4.22;;;0.68;;
35977;SDS011;22056;0.000;0.000;2022-12-29T08:11:00;0.98;;;0.50;;
35977;SDS011;22056;0.000;0.000;2022-12-29T08:13:27;1.90;;;0.40;;
35977;SDS011;22056;0.000;0.000;2022-12-29T08:15:53;2.88;;;0.57;;
35977;SDS011;22056;0.000;0.000;2022-12-29T08:18:19;2.45;;;0.60;;
35977;SDS011;22056;0.000;0.000;2022-12-29T08:20:45;1.42;;;0.57;;
35977;SDS011;22056;0.000;0.000;2022-12-29T08:23:11;1.55;;;0.50;;
35977;SDS011;22056;0.000;0.000;2022-12-29T08:25:37;2.10;;;0.60;;
35977;SDS011;22056;0.000;0.000;2022-12-29T08:28:03;1.42;;;0.68;;
35977;SDS011;22056;0.000;0.000;2022-12-29T08:30:30;1.35;;;0.50;;
35977;SDS011;22056;0.000;0.000;2022-12-29T08:32:56;3.28;;;0.80;;
35977;SDS011;22056;0.000;0.000;2022-12-29T08:35:22;0.75;;;0.50;;
35977;SDS011;22056;0.000;0.000;2022-12-29T08:37:48;2.85;;;0.50;;
35977;SDS011;22056;0.000;0.000;2022-12-29T08:40:14;1.95;;;0.70;;
35977;SDS011;22056;0.000;0.000;2022-12-29T08:42:40;1.63;;;0.60;;
35977;SDS011;22056;0.000;0.000;2022-12-29T08:45:07;2.47;;;0.77;;
35977;SDS011;22056;0.000;0.000;2022-12-29T08:47:33;1.73;;;0.70;;
35977;SDS011;22056;0.000;0.000;2022-12-29T08:49:59;1.50;;;0.60;;
35977;SDS011;22056;0.000;0.000;2022-12-29T08:52:26;0.90;;;0.60;;
35977;SDS011;22056;0.000;0.000;2022-12-29T08:54:52;2.47;;;0.70;;
35977;SDS011;22056;0.000;0.000;2022-12-29T08:57:18;2.53;;;0.82;;
35977;SDS011;22056;0.000;0.000;2022-12-29T08:59:44;4.00;;;0.60;;
35977;SDS011;22056;0.000;0.000;2022-12-29T09:02:11;2.15;;;0.70;;
35977;SDS011;22056;0.000;0.000;2022-12-29T09:04:37;2.50;;;0.45;;
35977;SDS011;22056;0.000;0.000;2022-12-29T09:07:03;3.72;;;0.98;;
35977;SDS011;22056;0.000;0.000;2022-12-29T09:09:30;1.00;;;0.40;;
35977;SDS011;22056;0.000;0.000;2022-12-29T09:11:56;1.98;;;0.65;;
35977;SDS011;22056;0.000;0.000;2022-12-29T09:14:23;3.72;;;0.82;;
35977;SDS011;22056;0.000;0.000;2022-12-29T09:16:51;3.83;;;0.80;;
35977;SDS011;22056;0.000;0.000;2022-12-29T09:19:35;3.38;;;0.85;;
35977;SDS011;22056;0.000;0.000;2022-12-29T09:22:01;4.05;;;0.77;;
35977;SDS011;22056;0.000;0.000;2022-12-29T09:24:28;4.45;;;0.88;;
35977;SDS011;22056;0.000;0.000;2022-12-29T09:26:54;1.88;;;0.60;;
35977;SDS011;22056;0.000;0.000;2022-12-29T09:29:20;2.15;;;0.70;;
35977;SDS011;22056;0.000;0.000;2022-12-29T09:31:46;1.75;;;0.77;;
35977;SDS011;22056;0.000;0.000;2022-12-29T09:34:12;1.55;;;0.77;;
35977;SDS011;22056;0.000;0.000;2022-12-29T09:36:39;0.60;;;0.52;;
35977;SDS011;22056;0.000;0.000;2022-12-29T09:39:05;2.72;;;0.90;;
35977;SDS011;22056;0.000;0.000;2022-12-29T09:41:56;2.70;;;0.93;;
35977;SDS011;22056;0.000;0.000;2022-12-29T09:47:03;2.60;;;0.75;;
35977;SDS011;22056;0.000;0.000;2022-12-29T09:52:06;2.60;;;0.95;;
35977;SDS011;22056;0.000;0.000;2022-12-29T09:54:46;3.22;;;0.93;;
35977;SDS011;22056;0.000;0.000;2022-12-29T09:57:16;5.63;;;1.05;;
35977;SDS011;22056;0.000;0.000;2022-12-29T09:59:43;4.22;;;0.95;;
35977;SDS011;22056;0.000;0.000;2022-12-29T10:02:23;3.50;;;1.27;;
35977;SDS011;22056;0.000;0.000;2022-12-29T10:04:52;3.50;;;0.60;;
35977;SDS011;22056;0.000;0.000;2022-12-29T10:17:27;4.85;;;1.10;;
35977;SDS011;22056;0.000;0.000;2022-12-29T10:22:45;6.07;;;1.10;;
35977;SDS011;22056;0.000;0.000;2022-12-29T10:25:19;2.65;;;0.85;;
35977;SDS011;22056;0.000;0.000;2022-12-29T10:27:49;3.10;;;1.10;;
35977;SDS011;22056;0.000;0.000;2022-12-29T10:30:16;3.30;;;0.70;;
35977;SDS011;22056;0.000;0.000;2022-12-29T10:37:50;4.72;;;0.80;;
35977;SDS011;22056;0.000;0.000;2022-12-29T10:42:54;5.00;;;0.90;;
35977;SDS011;22056;0.000;0.000;2022-12-29T10:45:21;4.60;;;0.90;;
35977;SDS011;22056;0.000;0.000;2022-12-29T10:47:53;5.05;;;0.82;;
35977;SDS011;22056;0.000;0.000;2022-12-29T10:50:20;5.43;;;0.90;;
35977;SDS011;22056;0.000;0.000;2022-12-29T10:52:46;3.25;;;0.82;;
35977;SDS011;22056;0.000;0.000;2022-12-29T10:55:13;4.45;;;0.82;;
35977;SDS011;22056;0.000;0.000;2022-12-29T10:57:42;4.00;;;0.88;;
35977;SDS011;22056;0.000;0.000;2022-12-29T11:00:13;5.25;;;1.00;;
35977;SDS011;22056;0.000;0.000;2022-12-29T11:05:14;2.28;;;0.80;;
35977;SDS011;22056;0.000;0.000;2022-12-29T11:07:43;4.90;;;0.82;;
35977;SDS011;22056;0.000;0.000;2022-12-29T11:12:59;5.43;;;1.17;;
35977;SDS011;22056;0.000;0.000;2022-12-29T11:15:25;3.33;;;0.90;;
35977;SDS011;22056;0.000;0.000;2022-12-29T11:17:56;3.08;;;0.80;;
35977;SDS011;22056;0.000;0.000;2022-12-29T11:20:31;3.78;;;0.93;;
35977;SDS011;22056;0.000;0.000;2022-12-29T11:22:59;7.18;;;1.05;;
35977;SDS011;22056;0.000;0.000;2022-12-29T11:25:25;5.13;;;1.25;;
35977;SDS011;22056;0.000;0.000;2022-12-29T11:28:03;4.35;;;0.90;;
35977;SDS011;22056;0.000;0.000;2022-12-29T11:30:39;4.95;;;0.80;;
35977;SDS011;22056;0.000;0.000;2022-12-29T11:33:05;5.63;;;1.00;;
35977;SDS011;22056;0.000;0.000;2022-12-29T11:35:36;4.03;;;1.15;;
35977;SDS011;22056;0.000;0.000;2022-12-29T11:38:04;3.72;;;1.10;;
35977;SDS011;22056;0.000;0.000;2022-12-29T11:40:31;4.60;;;0.93;;
35977;SDS011;22056;0.000;0.000;2022-12-29T11:43:02;3.33;;;1.00;;
35977;SDS011;22056;0.000;0.000;2022-12-29T11:45:30;4.13;;;1.00;;
35977;SDS011;22056;0.000;0.000;2022-12-29T11:48:09;5.22;;;1.45;;
35977;SDS011;22056;0.000;0.000;2022-12-29T11:50:41;3.42;;;1.10;;
35977;SDS011;22056;0.000;0.000;2022-12-29T11:55:40;8.63;;;1.10;;
35977;SDS011;22056;0.000;0.000;2022-12-29T11:58:15;5.68;;;0.98;;
35977;SDS011;22056;0.000;0.000;2022-12-29T12:00:41;4.03;;;1.02;;
35977;SDS011;22056;0.000;0.000;2022-12-29T12:03:17;3.95;;;0.77;;
35977;SDS011;22056;0.000;0.000;2022-12-29T12:05:55;4.05;;;1.00;;
35977;SDS011;22056;0.000;0.000;2022-12-29T12:08:36;5.05;;;0.75;;
35977;SDS011;22056;0.000;0.000;2022-12-29T12:18:37;4.15;;;1.48;;
35977;SDS011;22056;0.000;0.000;2022-12-29T12:21:05;6.25;;;1.33;;
35977;SDS011;22056;0.000;0.000;2022-12-29T12:28:49;5.47;;;0.93;;
35977;SDS011;22056;0.000;0.000;2022-12-29T12:33:54;5.30;;;0.85;;
35977;SDS011;22056;0.000;0.000;2022-12-29T12:38:54;5.95;;;1.38;;
35977;SDS011;22056;0.000;0.000;2022-12-29T12:41:24;5.38;;;1.08;;
35977;SDS011;22056;0.000;0.000;2022-12-29T12:43:59;3.67;;;1.00;;
35977;SDS011;22056;0.000;0.000;2022-12-29T12:49:30;3.60;;;0.75;;
35977;SDS011;22056;0.000;0.000;2022-12-29T13:05:14;4.82;;;1.25;;
35977;SDS011;22056;0.000;0.000;2022-12-29T13:23:29;2.22;;;0.68;;
35977;SDS011;22056;0.000;0.000;2022-12-29T13:25:37;1.95;;;0.80;;
35977;SDS011;22056;0.000;0.000;2022-12-29T13:30:53;6.82;;;1.10;;
35977;SDS011;22056;0.000;0.000;2022-12-29T13:33:43;3.72;;;0.90;;
35977;SDS011;22056;0.000;0.000;2022-12-29T13:38:46;5.57;;;0.90;;
35977;SDS011;22056;0.000;0.000;2022-12-29T13:41:17;9.02;;;1.27;;
35977;SDS011;22056;0.000;0.000;2022-12-29T13:43:44;2.85;;;0.90;;
35977;SDS011;22056;0.000;0.000;2022-12-29T13:46:19;5.43;;;1.00;;
35977;SDS011;22056;0.000;0.000;2022-12-29T13:48:58;4.53;;;1.05;;
35977;SDS011;22056;0.000;0.000;2022-12-29T13:51:26;3.10;;;0.60;;
35977;SDS011;22056;0.000;0.000;2022-12-29T13:54:01;4.35;;;0.85;;
35977;SDS011;22056;0.000;0.000;2022-12-29T13:59:07;5.47;;;0.80;;
35977;SDS011;22056;0.000;0.000;2022-12-29T14:01:55;3.60;;;0.90;;
35977;SDS011;22056;0.000;0.000;2022-12-29T14:04:24;3.00;;;1.10;;
35977;SDS011;22056;0.000;0.000;2022-12-29T14:07:03;6.03;;;1.00;;
35977;SDS011;22056;0.000;0.000;2022-12-29T14:09:41;7.35;;;1.23;;
35977;SDS011;22056;0.000;0.000;2022-12-29T14:14:47;5.03;;;0.80;;
35977;SDS011;22056;0.000;0.000;2022-12-29T14:17:16;3.88;;;0.90;;
35977;SDS011;22056;0.000;0.000;2022-12-29T14:19:43;3.33;;;0.93;;
35977;SDS011;22056;0.000;0.000;2022-12-29T14:22:10;4.65;;;1.00;;
35977;SDS011;22056;0.000;0.000;2022-12-29T14:24:44;2.47;;;0.63;;
35977;SDS011;22056;0.000;0.000;2022-12-29T14:37:29;7.60;;;1.00;;
35977;SDS011;22056;0.000;0.000;2022-12-29T14:42:43;7.15;;;0.70;;
35977;SDS011;22056;0.000;0.000;2022-12-29T14:47:39;7.78;;;1.08;;
35977;SDS011;22056;0.000;0.000;2022-12-29T14:50:14;3.90;;;1.00;;
35977;SDS011;22056;0.000;0.000;2022-12-29T14:52:47;7.10;;;0.93;;
35977;SDS011;22056;0.000;0.000;2022-12-29T14:57:44;4.47;;;0.93;;
35977;SDS011;22056;0.000;0.000;2022-12-29T15:02:40;3.95;;;0.90;;
35977;SDS011;22056;0.000;0.000;2022-12-29T15:05:19;2.10;;;0.70;;
35977;SDS011;22056;0.000;0.000;2022-12-29T15:07:48;5.57;;;0.82;;
35977;SDS011;22056;0.000;0.000;2022-12-29T15:10:15;3.67;;;0.73;;
35977;SDS011;22056;0.000;0.000;2022-12-29T15:12:52;2.08;;;0.80;;
35977;SDS011;22056;0.000;0.000;2022-12-29T15:15:22;5.70;;;1.10;;
35977;SDS011;22056;0.000;0.000;2022-12-29T15:17:49;2.72;;;0.60;;
35977;SDS011;22056;0.000;0.000;2022-12-29T15:20:26;2.83;;;0.80;;
35977;SDS011;22056;0.000;0.000;2022-12-29T15:22:54;3.75;;;0.80;;
35977;SDS011;22056;0.000;0.000;2022-12-29T15:25:21;5.50;;;0.90;;
35977;SDS011;22056;0.000;0.000;2022-12-29T15:28:00;2.35;;;0.63;;
35977;SDS011;22056;0.000;0.000;2022-12-29T15:30:27;3.80;;;0.90;;
35977;SDS011;22056;0.000;0.000;2022-12-29T15:32:53;4.85;;;0.82;;
35977;SDS011;22056;0.000;0.000;2022-12-29T15:35:33;2.55;;;0.80;;
35977;SDS011;22056;0.000;0.000;2022-12-29T15:38:00;5.03;;;1.08;;
35977;SDS011;22056;0.000;0.000;2022-12-29T15:40:31;1.92;;;0.68;;
35977;SDS011;22056;0.000;0.000;2022-12-29T15:47:56;5.63;;;1.05;;
35977;SDS011;22056;0.000;0.000;2022-12-29T15:50:28;8.98;;;1.48;;
35977;SDS011;22056;0.000;0.000;2022-12-29T15:52:55;4.97;;;1.10;;
35977;SDS011;22056;0.000;0.000;2022-12-29T15:55:24;11.32;;;1.52;;
35977;SDS011;22056;0.000;0.000;2022-12-29T15:57:55;11.52;;;1.70;;
35977;SDS011;22056;0.000;0.000;2022-12-29T16:00:22;9.07;;;1.13;;
35977;SDS011;22056;0.000;0.000;2022-12-29T16:02:50;6.72;;;1.20;;
35977;SDS011;22056;0.000;0.000;2022-12-29T16:05:17;27.50;;;2.50;;
35977;SDS011;22056;0.000;0.000;2022-12-29T16:07:57;8.20;;;1.17;;
35977;SDS011;22056;0.000;0.000;2022-12-29T16:10:35;9.18;;;0.95;;
35977;SDS011;22056;0.000;0.000;2022-12-29T16:13:10;5.95;;;0.90;;
35977;SDS011;22056;0.000;0.000;2022-12-29T16:15:38;6.65;;;1.02;;
35977;SDS011;22056;0.000;0.000;2022-12-29T16:18:04;4.43;;;0.80;;
35977;SDS011;22056;0.000;0.000;2022-12-29T16:20:39;3.55;;;0.75;;
35977;SDS011;22056;0.000;0.000;2022-12-29T16:23:09;4.75;;;0.80;;
35977;SDS011;22056;0.000;0.000;2022-12-29T16:25:40;2.38;;;0.80;;
35977;SDS011;22056;0.000;0.000;2022-12-29T16:31:05;2.42;;;0.70;;
35977;SDS011;22056;0.000;0.000;2022-12-29T16:33:39;2.83;;;0.65;;
35977;SDS011;22056;0.000;0.000;2022-12-29T16:38:50;1.08;;;0.70;;
35977;SDS011;22056;0.000;0.000;2022-12-29T16:41:29;17.63;;;1.65;;
35977;SDS011;22056;0.000;0.000;2022-12-29T16:46:44;8.57;;;1.10;;
35977;SDS011;22056;0.000;0.000;2022-12-29T16:49:22;3.85;;;0.88;;
35977;SDS011;22056;0.000;0.000;2022-12-29T16:51:48;2.03;;;0.90;;
35977;SDS011;22056;0.000;0.000;2022-12-29T16:54:19;5.45;;;0.80;;
35977;SDS011;22056;0.000;0.000;2022-12-29T16:56:47;5.00;;;0.93;;
35977;SDS011;22056;0.000;0.000;2022-12-29T17:01:46;3.75;;;1.00;;
35977;SDS011;22056;0.000;0.000;2022-12-29T17:04:12;4.13;;;0.80;;
35977;SDS011;22056;0.000;0.000;2022-12-29T17:06:39;2.72;;;0.70;;
35977;SDS011;22056;0.000;0.000;2022-12-29T17:09:21;1.77;;;0.70;;
35977;SDS011;22056;0.000;0.000;2022-12-29T17:11:48;3.88;;;0.68;;
35977;SDS011;22056;0.000;0.000;2022-12-29T17:16:57;3.33;;;0.93;;
35977;SDS011;22056;0.000;0.000;2022-12-29T17:19:29;2.70;;;0.73;;
35977;SDS011;22056;0.000;0.000;2022-12-29T17:21:56;1.83;;;0.80;;
35977;SDS011;22056;0.000;0.000;2022-12-29T17:24:22;8.75;;;1.20;;
35977;SDS011;22056;0.000;0.000;2022-12-29T17:26:49;19.80;;;1.90;;
35977;SDS011;22056;0.000;0.000;2022-12-29T17:29:17;9.55;;;1.60;;
35977;SDS011;22056;0.000;0.000;2022-12-29T17:31:44;5.07;;;1.30;;
35977;SDS011;22056;0.000;0.000;2022-12-29T17:34:11;6.72;;;1.42;;
35977;SDS011;22056;0.000;0.000;2022-12-29T17:36:38;7.22;;;1.20;;
35977;SDS011;22056;0.000;0.000;2022-12-29T17:39:04;2.08;;;0.65;;
35977;SDS011;22056;0.000;0.000;2022-12-29T17:41:31;2.97;;;0.88;;
35977;SDS011;22056;0.000;0.000;2022-12-29T17:43:59;3.10;;;0.50;;
35977;SDS011;22056;0.000;0.000;2022-12-29T17:46:26;8.23;;;1.00;;
35977;SDS011;22056;0.000;0.000;2022-12-29T17:48:53;3.70;;;0.95;;
35977;SDS011;22056;0.000;0.000;2022-12-29T17:51:20;4.20;;;1.08;;
35977;SDS011;22056;0.000;0.000;2022-12-29T17:53:46;5.05;;;1.15;;
35977;SDS011;22056;0.000;0.000;2022-12-29T17:56:14;4.10;;;1.00;;
35977;SDS011;22056;0.000;0.000;2022-12-29T17:58:40;7.22;;;0.98;;
35977;SDS011;22056;0.000;0.000;2022-12-29T18:01:08;4.15;;;0.80;;
35977;SDS011;22056;0.000;0.000;2022-12-29T18:03:36;3.97;;;0.77;;
35977;SDS011;22056;0.000;0.000;2022-12-29T18:06:03;2.60;;;1.00;;
35977;SDS011;22056;0.000;0.000;2022-12-29T18:08:33;2.90;;;0.90;;
35977;SDS011;22056;0.000;0.000;2022-12-29T18:11:00;3.08;;;0.90;;